ADDS METAR Data INFO
IDs: Format: Raw Decoded Include TAF

Data at: 1612 UTC 14 Aug 2018

KOZA 141555Z AUTO 19010G21KT 7SM OVC013 24/20 A3004 RMK AO2
KOZA 141535Z AUTO 19013G21KT 5SM HZ OVC011 23/20 A3004 RMK AO2
KOZA 141515Z AUTO 19010G24KT 7SM OVC011 23/20 A3004 RMK AO2
KOZA 141455Z AUTO 19011G21KT 7SM OVC011 23/20 A3003 RMK AO2
KOZA 141435Z AUTO 18011G23KT 7SM OVC011 23/20 A3003 RMK AO2
KOZA 141415Z AUTO 18014G22KT 7SM OVC011 22/20 A3002 RMK AO2
KOZA 141355Z AUTO 17011G16KT 7SM OVC011 22/20 A3002 RMK AO2
KOZA 141335Z AUTO 17010KT 7SM BKN009 OVC022 22/20 A3002 RMK AO2
KOZA 141315Z AUTO 18006KT 7SM BKN009 BKN024 22/20 A3002 RMK AO2
KOZA 141255Z AUTO 18006KT 7SM SCT009 21/20 A3002 RMK AO2
KOZA 141235Z AUTO 18007KT 7SM CLR 21/20 A3001 RMK AO2
KOZA 141215Z AUTO 18006KT 10SM CLR 21/20 A3001 RMK AO2
KOZA 141155Z AUTO 19005KT 7SM CLR 21/20 A3000 RMK AO2
KOZA 141135Z AUTO 18006KT 7SM CLR 22/20 A3000 RMK AO2
KOZA 141115Z AUTO 17008KT 7SM CLR 22/20 A3000 RMK AO2
KOZA 141055Z AUTO 18007KT 7SM SCT011 22/20 A3000 RMK AO2
KOZA 141035Z AUTO 17009KT 10SM CLR 21/20 A2999 RMK AO2
KOZA 141015Z AUTO 17008KT 7SM CLR 21/20 A2998 RMK AO2
KOZA 140955Z AUTO 17005KT 7SM CLR 21/20 A2999 RMK AO2
KOZA 140935Z AUTO 18003KT 5SM BR CLR 21/20 A3000 RMK AO2
KOZA 140915Z AUTO 19006KT 7SM CLR 21/20 A3000 RMK AO2
KOZA 140855Z AUTO 19007KT 7SM CLR 21/20 A3000 RMK AO2
KOZA 140835Z AUTO 18005KT 7SM CLR 21/20 A3000 RMK AO2
KOZA 140815Z AUTO 18008KT 7SM CLR 21/20 A3000 RMK AO2
KOZA 140750Z AUTO 00000KT 5SM BR CLR 21/20 A3001 RMK AO2
KOZA 140735Z AUTO 21004KT 5SM BR CLR 21/20 A3001 RMK AO2
KOZA 140715Z AUTO 00000KT 5SM BR CLR 21/20 A3002 RMK AO2
KOZA 140655Z AUTO 21003KT 5SM BR CLR 21/21 A3002 RMK AO2
KOZA 140635Z AUTO 18005KT 5SM BR CLR 21/20 A3002 RMK AO2
KOZA 140615Z AUTO 19009KT 5SM BR CLR 22/21 A3002 RMK AO2
KOZA 140555Z AUTO 20004KT 5SM BR CLR 22/21 A3002 RMK AO2
KOZA 140530Z AUTO 20005KT 7SM CLR 22/21 A3002 RMK AO2
KOZA 140515Z AUTO 21004KT 7SM CLR 22/21 A3002 RMK AO2
KOZA 140455Z AUTO 20004KT 7SM CLR 22/21 A3002 RMK AO2
KOZA 140435Z AUTO 28007KT 7SM CLR 23/21 A3002 RMK AO2
KOZA 140415Z AUTO 21004KT 7SM CLR 23/21 A3002 RMK AO2
KOZA 140355Z AUTO 19006KT 7SM CLR 23/21 A3002 RMK AO2
KOZA 140335Z AUTO 00000KT 7SM CLR 23/21 A3002 RMK AO2
KOZA 140315Z AUTO 21008KT 10SM CLR 23/21 A3001 RMK AO2
KOZA 140255Z AUTO 20007KT 7SM CLR 23/21 A3000 RMK AO2
KOZA 140235Z AUTO 19009KT 10SM CLR 23/21 A3000 RMK AO2 LTG DSNT S
KOZA 140215Z AUTO 19010KT 10SM -DZ CLR 23/20 A3000 RMK AO2
KOZA 140155Z AUTO 19012KT 10SM -RA SCT048 SCT050 23/20 A3000 RMK AO2
KOZA 140135Z AUTO 19013KT 10SM -RA SCT048 SCT055 24/20 A3000 RMK AO2
KOZA 140115Z AUTO 18014G22KT 10SM -RA CLR 25/20 A3000 RMK AO2
KOZA 140055Z AUTO 18016G23KT 10SM -DZ SCT029 SCT036 26/20 A2999 RMK AO2
KOZA 140035Z AUTO 18017G21KT 10SM SCT031 SCT038 26/19 A2999 RMK AO2
KOZA 140015Z AUTO 19012KT 10SM CLR 26/19 A2999 RMK AO2 LTG DSNT SW
KOZA 132355Z AUTO 18014G19KT 7SM CLR 27/20 A2999 RMK AO2
KOZA 132335Z AUTO 20013G17KT 10SM CLR 27/19 A3000 RMK AO2
KOZA 132315Z AUTO 19015KT 10SM SCT050 SCT065 27/19 A3000 RMK AO2
KOZA 132255Z AUTO 19014KT 10SM SCT037 SCT047 SCT055 27/18 A3000 RMK AO2
KOZA 132235Z AUTO 18015G20KT 10SM SCT035 BKN046 27/18 A2999 RMK AO2 LTG DSNT N AND W
KOZA 132215Z AUTO 18013G18KT 10SM SCT033 SCT044 28/19 A2999 RMK AO2 LTG DSNT N AND NW
KOZA 132155Z AUTO 19013KT 10SM SCT033 28/18 A2999 RMK AO2 LTG DSNT NW THRU NE
KOZA 132135Z AUTO 19014KT 10SM SCT033 SCT041 SCT048 28/20 A2999 RMK AO2 LTG DSNT NW
KOZA 132115Z AUTO 19012KT 10SM SCT033 BKN041 BKN050 28/19 A3000 RMK AO2 LTG DSNT S AND W
KOZA 132055Z AUTO 18013G17KT 7SM SCT029 SCT035 SCT050 28/20 A3001 RMK AO2 LTG DSNT N AND S
KOZA 132035Z AUTO 19013KT 7SM SCT027 BKN035 BKN050 27/20 A3001 RMK AO2
KOZA 132015Z AUTO 18012G20KT 150V230 7SM BKN025 OVC049 27/20 A3002 RMK AO2 LTG DSNT SW THRU NW
KOZA 131955Z AUTO 19014G20KT 7SM BKN023 BKN027 BKN049 27/20 A3003 RMK AO2 LTG DSNT N
KOZA 131930Z AUTO 18013G18KT 7SM VCTS SCT021 SCT027 BKN049 27/20 A3004 RMK AO2 LTG DSNT N AND SE
KOZA 131915Z AUTO 18012KT 10SM BKN025 BKN031 OVC050 26/20 A3005 RMK AO2 LTG DSNT N
KOZA 131855Z AUTO 18012G15KT 10SM BKN024 BKN034 OVC049 26/20 A3005 RMK AO2 LTG DSNT N
KOZA 131835Z AUTO 19009G14KT 7SM SCT020 SCT026 OVC035 26/20 A3006 RMK AO2 LTG DSNT N
KOZA 131815Z AUTO 19009G15KT 7SM SCT016 OVC026 24/20 A3007 RMK AO2
KOZA 131755Z AUTO 19009KT 10SM BKN018 OVC028 25/20 A3008 RMK AO2 LTG DSNT N
KOZA 131735Z AUTO 18010KT 7SM OVC017 24/20 A3008 RMK AO2
KOZA 131715Z AUTO 18008G14KT 10SM OVC015 23/20 A3009 RMK AO2
KOZA 131655Z AUTO 19007KT 7SM OVC013 22/20 A3009 RMK AO2
KOZA 131635Z AUTO 18005KT 7SM OVC013 22/20 A3009 RMK AO2
KOZA 131615Z AUTO 18007KT 7SM -RA OVC013 22/20 A3009 RMK AO2
KOZA 131550Z AUTO 18008KT 7SM BKN011 OVC014 22/20 A3009 RMK AO2
KOZA 131535Z AUTO 18009KT 7SM OVC009 22/20 A3009 RMK AO2
KOZA 131515Z AUTO 18007KT 7SM OVC009 22/20 A3008 RMK AO2
KOZA 131455Z AUTO 19005KT 5SM BR OVC009 22/20 A3008 RMK AO2 LTG DSNT NW
KOZA 131435Z AUTO 18004KT 5SM BR OVC009 22/20 A3008 RMK AO2
KOZA 131415Z AUTO 18006KT 7SM BKN007 OVC012 22/20 A3007 RMK AO2
KOZA 131355Z AUTO 19006KT 7SM OVC007 22/20 A3008 RMK AO2
KOZA 131335Z AUTO 17007KT 7SM OVC005 21/20 A3008 RMK AO2
KOZA 131315Z AUTO 18008KT 5SM BR OVC005 21/20 A3008 RMK AO2
KOZA 131255Z AUTO 17009KT 5SM BR OVC005 21/20 A3008 RMK AO2
KOZA 131235Z AUTO 18008KT 5SM BR OVC005 21/20 A3007 RMK AO2
KOZA 131210Z AUTO 18008KT 7SM OVC005 21/20 A3007 RMK AO2
KOZA 131155Z AUTO 17008KT 7SM -RA OVC005 21/20 A3007 RMK AO2 LTG DSNT N
KOZA 131135Z AUTO 18007KT 7SM DZ BKN007 OVC014 22/21 A3006 RMK AO2 LTG DSNT N
KOZA 131115Z AUTO 18005KT 7SM BKN007 OVC012 21/21 A3005 RMK AO2 LTG DSNT N
KOZA 131055Z AUTO 17006KT 7SM -RA BKN007 OVC013 21/20 A3005 RMK AO2
KOZA 131035Z AUTO 17005KT 7SM OVC007 21/20 A3005 RMK AO2
KOZA 131015Z AUTO 18004KT 10SM OVC007 21/20 A3007 RMK AO2
KOZA 130955Z AUTO 18005KT 7SM OVC007 21/20 A3007 RMK AO2
KOZA 130935Z AUTO 18006KT 10SM OVC007 21/20 A3007 RMK AO2
KOZA 130915Z AUTO 17008KT 10SM -RA OVC009 22/20 A3007 RMK AO2
KOZA 130855Z AUTO 17010KT 10SM DZ OVC009 22/20 A3007 RMK AO2
KOZA 130830Z AUTO 18009KT 10SM BKN013 OVC037 22/21 A3008 RMK AO2
KOZA 130815Z AUTO 18008KT 10SM SCT013 BKN039 OVC120 22/21 A3007 RMK AO2
KOZA 130755Z AUTO 20007KT 10SM -RA SCT015 BKN022 OVC045 22/21 A3008 RMK AO2
KOZA 130735Z AUTO 18007KT 7SM OVC022 22/21 A3008 RMK AO2
KOZA 130715Z AUTO 13004KT 10SM RA BKN022 BKN029 OVC034 22/21 A3008 RMK AO2
KOZA 130655Z AUTO 12005KT 10SM DZ SCT022 BKN028 OVC042 22/21 A3008 RMK AO2
KOZA 130635Z AUTO 10005KT 10SM RA BKN028 OVC035 22/21 A3009 RMK AO2
KOZA 130615Z AUTO 09005KT 10SM BKN023 BKN031 OVC036 22/21 A3009 RMK AO2
KOZA 130555Z AUTO 10005KT 10SM BKN023 BKN047 BKN055 22/21 A3009 RMK AO2
KOZA 130535Z AUTO 09004KT 10SM SCT049 BKN070 BKN085 22/21 A3009 RMK AO2
KOZA 130515Z AUTO 13004KT 10SM SCT026 SCT049 BKN070 22/20 A3009 RMK AO2
KOZA 130450Z AUTO 10003KT 10SM OVC024 22/20 A3009 RMK AO2
KOZA 130435Z AUTO 00000KT 10SM BKN024 OVC032 22/20 A3010 RMK AO2
KOZA 130415Z AUTO 20005KT 10SM SCT030 SCT034 22/20 A3009 RMK AO2